createdAt,value
2022-09-15T00:00:27.378Z,91.05
2022-09-15T00:02:53.942Z,90.74
2022-09-15T00:05:20.855Z,90.40
2022-09-15T00:07:47.686Z,90.18
2022-09-15T00:10:14.077Z,90.32
2022-09-15T00:12:40.459Z,90.44
2022-09-15T00:15:07.720Z,90.56
2022-09-15T00:17:34.121Z,90.51
2022-09-15T00:20:00.539Z,90.28
2022-09-15T00:22:28.059Z,90.83
2022-09-15T00:24:54.432Z,90.89
2022-09-15T00:27:20.778Z,91.20
2022-09-15T00:29:47.131Z,90.96
2022-09-15T00:32:13.476Z,90.57
2022-09-15T00:34:39.841Z,89.81
2022-09-15T00:37:06.429Z,89.94
2022-09-15T00:39:32.865Z,90.07
2022-09-15T00:41:59.369Z,89.38
2022-09-15T00:44:44.708Z,89.20
2022-09-15T00:47:19.289Z,89.27
2022-09-15T00:49:48.619Z,89.32
2022-09-15T00:52:20.715Z,88.83
2022-09-15T00:55:02.649Z,89.60
2022-09-15T00:57:41.117Z,89.45
2022-09-15T01:00:13.279Z,89.27
2022-09-15T01:02:43.091Z,89.37
2022-09-15T01:05:12.749Z,89.56
2022-09-15T01:08:01.764Z,89.80
2022-09-15T01:10:34.691Z,89.42
2022-09-15T01:13:04.440Z,89.37
2022-09-15T01:15:44.524Z,89.05
2022-09-15T01:18:45.073Z,88.70
2022-09-15T01:21:21.687Z,88.55
2022-09-15T01:24:06.675Z,87.90
2022-09-15T01:26:35.989Z,87.74
2022-09-15T01:29:33.372Z,87.88
2022-09-15T01:32:44.649Z,87.87
2022-09-15T01:35:20.455Z,87.90
2022-09-15T01:37:52.882Z,88.17
2022-09-15T01:40:23.185Z,88.68
2022-09-15T01:42:51.001Z,88.40
2022-09-15T01:45:26.500Z,88.53
2022-09-15T01:47:56.942Z,87.59
2022-09-15T01:50:28.570Z,87.48
2022-09-15T01:52:57.393Z,86.52
2022-09-15T01:55:40.347Z,86.08
2022-09-15T01:58:07.072Z,85.53
2022-09-15T02:00:38.347Z,85.36
2022-09-15T02:03:14.375Z,85.71
2022-09-15T02:05:47.733Z,85.04
2022-09-15T02:08:32.945Z,84.53
2022-09-15T02:11:18.232Z,84.68
2022-09-15T02:14:11.199Z,85.16
2022-09-15T02:16:41.108Z,85.34
2022-09-15T02:19:25.994Z,86.22
2022-09-15T02:22:07.610Z,86.58
2022-09-15T02:24:43.141Z,86.95
2022-09-15T02:27:16.129Z,86.93
2022-09-15T02:29:47.107Z,87.17
2022-09-15T02:32:17.850Z,87.33
2022-09-15T02:34:47.782Z,87.58
2022-09-15T02:37:14.853Z,87.69
2022-09-15T02:39:48.797Z,87.63
2022-09-15T02:42:24.453Z,88.02
2022-09-15T02:44:51.412Z,88.75
2022-09-15T02:47:17.856Z,88.77
2022-09-15T02:49:44.298Z,87.67
2022-09-15T02:52:11.001Z,86.86
2022-09-15T02:54:37.966Z,87.83
2022-09-15T02:57:04.959Z,88.50
2022-09-15T02:59:51.307Z,88.96
2022-09-15T03:02:20.539Z,88.71
2022-09-15T03:04:48.086Z,88.76
2022-09-15T03:07:14.847Z,89.20
2022-09-15T03:09:41.476Z,88.88
2022-09-15T03:12:08.108Z,89.19
2022-09-15T03:14:36.668Z,89.65
2022-09-15T03:17:03.401Z,89.92
2022-09-15T03:19:30.838Z,90.22
2022-09-15T03:21:57.407Z,89.73
2022-09-15T03:24:23.762Z,89.80
2022-09-15T03:26:50.176Z,89.71
2022-09-15T03:29:16.771Z,89.94
2022-09-15T03:31:43.451Z,90.23
2022-09-15T03:34:09.981Z,90.39
2022-09-15T03:36:36.307Z,90.27
2022-09-15T03:39:02.943Z,90.02
2022-09-15T03:41:29.358Z,90.62
2022-09-15T03:43:56.595Z,90.56
2022-09-15T03:46:23.011Z,90.53
2022-09-15T03:48:49.392Z,90.55
2022-09-15T03:51:15.707Z,90.25
2022-09-15T03:53:42.462Z,90.20
2022-09-15T03:56:09.131Z,89.62
2022-09-15T03:58:37.909Z,89.64
2022-09-15T04:01:04.419Z,89.78
2022-09-15T04:03:31.650Z,89.56
2022-09-15T04:05:57.974Z,89.27
2022-09-15T04:08:24.374Z,89.69
2022-09-15T04:10:50.724Z,89.51
2022-09-15T04:13:17.137Z,89.62
2022-09-15T04:15:44.551Z,89.61
2022-09-15T04:18:10.918Z,89.68
2022-09-15T04:20:39.698Z,89.38
2022-09-15T04:23:06.131Z,89.36
2022-09-15T04:25:37.943Z,89.00
2022-09-15T04:28:04.395Z,89.38
2022-09-15T04:30:30.941Z,88.93
2022-09-15T04:32:57.336Z,89.31
2022-09-15T04:35:23.796Z,89.03
2022-09-15T04:37:50.230Z,88.68
2022-09-15T04:40:16.779Z,88.88
2022-09-15T04:42:43.230Z,88.96
2022-09-15T04:45:10.123Z,88.75
2022-09-15T04:47:39.355Z,88.84
2022-09-15T04:50:06.288Z,88.19
2022-09-15T04:52:33.800Z,88.53
2022-09-15T04:55:00.205Z,88.46
2022-09-15T04:57:28.826Z,88.66
2022-09-15T04:59:55.215Z,88.49
2022-09-15T05:02:21.841Z,88.57
2022-09-15T05:04:51.663Z,88.72
2022-09-15T05:07:20.921Z,88.29
2022-09-15T05:09:47.530Z,88.52
2022-09-15T05:12:17.146Z,88.49
2022-09-15T05:14:43.590Z,88.78
2022-09-15T05:17:24.011Z,88.61
2022-09-15T05:19:55.162Z,88.63
2022-09-15T05:22:21.841Z,88.64
2022-09-15T05:24:53.139Z,88.52
2022-09-15T05:27:19.931Z,88.88
2022-09-15T05:29:46.279Z,88.80
2022-09-15T05:32:14.987Z,89.16
2022-09-15T05:34:41.456Z,88.83
2022-09-15T05:37:11.479Z,88.80
2022-09-15T05:39:39.353Z,88.75
2022-09-15T05:42:06.245Z,89.29
2022-09-15T05:44:42.062Z,89.10
2022-09-15T05:47:08.475Z,89.20
2022-09-15T05:49:35.037Z,89.53
2022-09-15T05:52:01.687Z,89.31
2022-09-15T05:54:28.147Z,89.30
2022-09-15T05:56:56.875Z,89.34
2022-09-15T05:59:26.021Z,88.82
2022-09-15T06:01:52.686Z,88.81
2022-09-15T06:04:19.110Z,89.22
2022-09-15T06:06:45.496Z,88.84
2022-09-15T06:09:14.432Z,88.79
2022-09-15T06:11:40.778Z,88.83
2022-09-15T06:14:10.151Z,88.83
2022-09-15T06:16:36.632Z,88.81
2022-09-15T06:19:03.742Z,88.95
2022-09-15T06:21:40.901Z,89.24
2022-09-15T06:24:07.544Z,89.08
2022-09-15T06:26:38.943Z,89.26
2022-09-15T06:29:07.030Z,89.68
2022-09-15T06:31:34.419Z,89.20
2022-09-15T06:34:02.333Z,89.56
2022-09-15T06:36:30.404Z,89.26
2022-09-15T06:38:57.526Z,89.02
2022-09-15T06:41:24.419Z,89.44
2022-09-15T06:43:50.982Z,89.67
2022-09-15T06:46:24.929Z,89.18
2022-09-15T06:49:10.886Z,89.19
2022-09-15T06:51:37.341Z,88.95
2022-09-15T06:54:05.396Z,89.19
2022-09-15T06:56:37.086Z,89.42
2022-09-15T06:59:04.443Z,89.21
2022-09-15T07:01:31.925Z,89.52
2022-09-15T07:04:00.891Z,89.27
2022-09-15T07:06:29.042Z,89.35
2022-09-15T07:08:55.386Z,88.92
2022-09-15T07:11:21.699Z,88.86
2022-09-15T07:13:49.150Z,88.78
2022-09-15T07:16:16.432Z,88.57
2022-09-15T07:18:43.714Z,88.51
2022-09-15T07:21:21.422Z,88.17
2022-09-15T07:23:49.072Z,88.33
2022-09-15T07:26:27.179Z,88.34
2022-09-15T07:28:59.767Z,89.07
2022-09-15T07:31:28.683Z,88.62
2022-09-15T07:33:55.501Z,88.94
2022-09-15T07:36:21.986Z,88.85
2022-09-15T07:38:49.880Z,89.02
2022-09-15T07:41:19.603Z,88.97
2022-09-15T07:43:50.862Z,88.95
2022-09-15T07:46:18.603Z,88.50
2022-09-15T07:48:51.975Z,88.51
2022-09-15T07:51:18.992Z,88.10
2022-09-15T07:53:47.950Z,87.87
2022-09-15T07:56:16.066Z,87.18
2022-09-15T07:58:42.422Z,87.12
2022-09-15T08:01:14.860Z,87.02
2022-09-15T08:03:43.741Z,87.42
2022-09-15T08:06:10.919Z,87.15
2022-09-15T08:08:41.519Z,87.03
2022-09-15T08:11:09.958Z,86.98
2022-09-15T08:13:37.409Z,86.63
2022-09-15T08:16:16.030Z,87.20
2022-09-15T08:18:43.553Z,86.87
2022-09-15T08:21:17.393Z,86.43
2022-09-15T08:23:44.141Z,85.83
2022-09-15T08:26:14.456Z,86.05
2022-09-15T08:28:41.684Z,85.89
2022-09-15T08:31:10.417Z,85.90
2022-09-15T08:33:38.225Z,85.41
2022-09-15T08:36:11.348Z,84.59
2022-09-15T08:38:41.890Z,84.74
2022-09-15T08:41:27.448Z,84.41
2022-09-15T08:44:08.501Z,84.31
2022-09-15T08:46:41.298Z,84.57
2022-09-15T08:49:26.829Z,84.64
2022-09-15T08:52:07.229Z,84.39
2022-09-15T08:54:33.930Z,83.83
2022-09-15T08:57:03.288Z,83.69
2022-09-15T08:59:35.625Z,83.85
2022-09-15T09:02:27.126Z,82.95
2022-09-15T09:05:22.799Z,82.64
2022-09-15T09:07:59.696Z,82.52
2022-09-15T09:10:41.512Z,81.96
2022-09-15T09:13:41.053Z,82.20
2022-09-15T09:16:42.877Z,82.46
2022-09-15T09:19:22.974Z,81.82
2022-09-15T09:22:01.849Z,80.98
2022-09-15T09:24:36.009Z,80.16
2022-09-15T09:27:04.164Z,78.88
2022-09-15T09:29:39.642Z,77.73
2022-09-15T09:33:10.710Z,77.84
2022-09-15T09:35:48.947Z,77.45
2022-09-15T09:38:31.755Z,77.96
2022-09-15T09:41:02.106Z,78.13
2022-09-15T09:43:30.381Z,79.00
2022-09-15T09:45:57.040Z,78.63
2022-09-15T09:48:28.666Z,78.19
2022-09-15T09:50:55.258Z,78.26
2022-09-15T09:53:28.468Z,77.38
2022-09-15T09:56:14.390Z,77.36
2022-09-15T09:58:40.838Z,77.29
2022-09-15T10:01:16.328Z,75.99
2022-09-15T10:03:43.849Z,76.72
2022-09-15T10:06:22.032Z,75.74
2022-09-15T10:09:03.531Z,75.92
2022-09-15T10:11:52.197Z,74.38
2022-09-15T10:14:52.521Z,74.26
2022-09-15T10:17:23.052Z,74.38
2022-09-15T10:19:49.359Z,73.62
2022-09-15T10:22:32.433Z,73.28
2022-09-15T10:25:01.042Z,72.86
2022-09-15T10:27:35.803Z,73.66
2022-09-15T10:30:14.520Z,74.25
2022-09-15T10:32:43.171Z,73.56
2022-09-15T10:35:18.079Z,72.74
2022-09-15T10:38:16.580Z,72.83
2022-09-15T10:41:06.856Z,70.51
2022-09-15T10:43:46.052Z,70.95
2022-09-15T10:46:40.265Z,71.54
2022-09-15T10:49:34.568Z,67.31
2022-09-15T10:52:21.859Z,67.70
2022-09-15T10:55:14.941Z,67.82
2022-09-15T10:58:09.036Z,68.36
2022-09-15T11:00:41.941Z,68.41
2022-09-15T11:03:48.071Z,68.22
2022-09-15T11:06:39.154Z,68.50
2022-09-15T11:09:20.316Z,69.13
2022-09-15T11:12:28.906Z,67.55
2022-09-15T11:15:14.557Z,67.13
2022-09-15T11:18:15.828Z,68.41
2022-09-15T11:21:17.775Z,68.35
2022-09-15T11:23:50.190Z,69.24
2022-09-15T11:26:30.135Z,69.24
2022-09-15T11:29:03.378Z,69.29
2022-09-15T11:31:36.594Z,70.01
2022-09-15T11:34:11.534Z,69.53
2022-09-15T11:36:44.783Z,66.86
2022-09-15T11:39:28.831Z,66.71
2022-09-15T11:42:04.673Z,64.52
2022-09-15T11:44:34.739Z,64.02
2022-09-15T11:47:16.583Z,63.54
2022-09-15T11:49:48.898Z,64.55
2022-09-15T11:52:29.882Z,63.70
2022-09-15T11:55:08.619Z,63.51
2022-09-15T11:57:43.255Z,62.41
2022-09-15T12:00:14.759Z,61.52
2022-09-15T12:03:06.936Z,61.93
2022-09-15T12:05:41.534Z,62.06
2022-09-15T12:08:40.307Z,59.59
2022-09-15T12:11:19.368Z,59.77
2022-09-15T12:13:46.405Z,60.32
2022-09-15T12:16:14.526Z,60.14
2022-09-15T12:18:56.338Z,59.75
2022-09-15T12:21:38.863Z,59.31
2022-09-15T12:24:29.684Z,58.78
2022-09-15T12:26:56.090Z,58.94
2022-09-15T12:29:22.401Z,59.90
2022-09-15T12:32:14.260Z,59.36
2022-09-15T12:34:54.647Z,60.33
2022-09-15T12:37:21.051Z,61.08
2022-09-15T12:39:48.536Z,60.71
2022-09-15T12:42:29.371Z,61.39
2022-09-15T12:45:02.481Z,61.63
2022-09-15T12:47:31.700Z,62.82
2022-09-15T12:50:03.232Z,63.47
2022-09-15T12:52:29.963Z,63.48
2022-09-15T12:55:01.459Z,63.99
2022-09-15T12:57:35.485Z,63.89
2022-09-15T13:00:45.596Z,63.11
2022-09-15T13:03:49.483Z,63.78
2022-09-15T13:06:30.071Z,64.11
2022-09-15T13:09:03.853Z,65.01
2022-09-15T13:11:34.517Z,66.61
2022-09-15T13:14:04.093Z,67.01
2022-09-15T13:16:53.679Z,67.43
2022-09-15T13:19:29.574Z,67.17
2022-09-15T13:22:03.730Z,66.78
2022-09-15T13:24:42.965Z,66.62
2022-09-15T13:27:10.332Z,66.35
2022-09-15T13:29:47.146Z,66.14
2022-09-15T13:32:40.166Z,65.86
2022-09-15T13:35:30.766Z,65.02
2022-09-15T13:38:34.549Z,64.58
2022-09-15T13:41:34.836Z,64.22
2022-09-15T13:44:29.247Z,62.92
2022-09-15T13:47:17.782Z,63.30
2022-09-15T13:49:51.758Z,63.32
2022-09-15T13:52:22.365Z,63.37
2022-09-15T13:55:10.166Z,64.00
2022-09-15T14:00:33.871Z,63.60
2022-09-15T14:03:05.404Z,63.70
2022-09-15T14:05:34.999Z,63.31
2022-09-15T14:08:05.422Z,62.16
2022-09-15T14:10:39.969Z,62.46
2022-09-15T14:13:06.334Z,62.32
2022-09-15T14:15:32.850Z,61.31
2022-09-15T14:17:59.303Z,58.37
2022-09-15T14:20:30.991Z,58.68
2022-09-15T14:22:59.315Z,58.13
2022-09-15T14:25:27.808Z,58.06
2022-09-15T14:27:55.215Z,57.97
2022-09-15T14:30:31.869Z,59.15
2022-09-15T14:33:01.120Z,60.12
2022-09-15T14:35:35.019Z,60.77
2022-09-15T14:38:01.784Z,61.24
2022-09-15T14:40:41.237Z,62.70
2022-09-15T14:43:28.076Z,63.23
2022-09-15T14:46:02.463Z,64.28
2022-09-15T14:48:34.250Z,64.86
2022-09-15T14:51:02.913Z,65.18
2022-09-15T14:53:32.888Z,64.99
2022-09-15T14:56:11.526Z,64.91
2022-09-15T14:58:46.121Z,64.16
2022-09-15T15:01:22.685Z,62.55
2022-09-15T15:04:11.602Z,61.15
2022-09-15T15:06:59.294Z,61.18
2022-09-15T15:09:32.844Z,60.86
2022-09-15T15:12:16.158Z,61.08
2022-09-15T15:14:42.667Z,61.25
2022-09-15T15:17:27.163Z,61.08
2022-09-15T15:20:10.309Z,60.69
2022-09-15T15:22:38.666Z,60.64
2022-09-15T15:25:22.164Z,60.15
2022-09-15T15:27:54.019Z,60.04
2022-09-15T15:30:30.421Z,60.08
2022-09-15T15:33:03.116Z,59.82
2022-09-15T15:35:30.854Z,59.36
2022-09-15T15:38:03.412Z,60.04
2022-09-15T15:40:30.574Z,59.99
2022-09-15T15:43:05.671Z,60.53
2022-09-15T15:45:35.214Z,60.65
2022-09-15T15:48:03.684Z,60.95
2022-09-15T15:50:32.553Z,61.26
2022-09-15T15:53:00.755Z,61.75
2022-09-15T15:55:40.163Z,61.47
2022-09-15T15:58:06.675Z,61.94
2022-09-15T16:00:46.394Z,61.99
2022-09-15T16:03:14.531Z,61.81
2022-09-15T16:05:44.099Z,62.41
2022-09-15T16:08:31.024Z,61.73
2022-09-15T16:10:58.514Z,61.75
2022-09-15T16:13:25.306Z,62.23
2022-09-15T16:15:58.040Z,61.89
2022-09-15T16:18:24.766Z,62.50
2022-09-15T16:20:51.547Z,61.82
2022-09-15T16:23:20.397Z,61.96
2022-09-15T16:26:01.353Z,61.77
2022-09-15T16:28:28.696Z,62.33
2022-09-15T16:30:55.279Z,62.05
2022-09-15T16:33:21.645Z,62.19
2022-09-15T16:35:52.836Z,62.15
2022-09-15T16:38:21.808Z,62.30
2022-09-15T16:40:49.307Z,61.32
2022-09-15T16:43:17.584Z,59.57
2022-09-15T16:45:44.160Z,57.97
2022-09-15T16:48:11.078Z,57.60
2022-09-15T16:50:42.650Z,57.03
2022-09-15T16:53:17.834Z,56.86
2022-09-15T16:55:49.050Z,56.09
2022-09-15T16:58:16.496Z,55.13
2022-09-15T17:00:44.296Z,53.99
2022-09-15T17:03:17.217Z,54.07
2022-09-15T17:05:52.314Z,54.55
2022-09-15T17:08:21.322Z,54.73
2022-09-15T17:10:48.474Z,55.42
2022-09-15T17:13:20.192Z,55.39
2022-09-15T17:15:47.289Z,55.21
2022-09-15T17:18:15.362Z,54.73
2022-09-15T17:20:43.164Z,55.17
2022-09-15T17:23:27.653Z,54.46
2022-09-15T17:26:01.129Z,54.77
2022-09-15T17:28:31.006Z,54.17
2022-09-15T17:31:06.193Z,53.78
2022-09-15T17:33:33.191Z,53.38
2022-09-15T17:36:00.174Z,53.56
2022-09-15T17:38:27.400Z,53.91
2022-09-15T17:40:55.375Z,53.44
2022-09-15T17:43:25.203Z,53.08
2022-09-15T17:45:51.693Z,53.38
2022-09-15T17:48:18.354Z,53.25
2022-09-15T17:50:46.176Z,53.53
2022-09-15T17:53:14.986Z,53.83
2022-09-15T17:55:50.680Z,53.86
2022-09-15T17:58:32.512Z,54.23
2022-09-15T18:01:27.087Z,54.88
2022-09-15T18:04:29.856Z,54.71
2022-09-15T18:07:03.716Z,54.78
2022-09-15T18:09:31.472Z,54.87
2022-09-15T18:11:59.933Z,55.32
2022-09-15T18:14:29.451Z,55.50
2022-09-15T18:17:05.842Z,55.88
2022-09-15T18:19:43.836Z,55.66
2022-09-15T18:22:16.015Z,55.99
2022-09-15T18:24:42.728Z,56.07
2022-09-15T18:30:10.912Z,56.72
2022-09-15T18:35:29.182Z,56.74
2022-09-15T18:38:09.027Z,57.37
2022-09-15T18:40:35.687Z,57.67
2022-09-15T18:43:02.038Z,57.37
2022-09-15T18:45:28.592Z,57.38
2022-09-15T18:47:55.091Z,57.26
2022-09-15T18:50:25.242Z,57.62
2022-09-15T18:52:51.714Z,58.19
2022-09-15T18:55:21.130Z,58.14
2022-09-15T18:57:48.392Z,58.22
2022-09-15T19:00:21.068Z,58.66
2022-09-15T19:02:47.611Z,58.93
2022-09-15T19:05:15.654Z,59.10
2022-09-15T19:07:43.977Z,59.37
2022-09-15T19:10:11.602Z,59.54
2022-09-15T19:12:39.037Z,59.65
2022-09-15T19:15:10.767Z,59.77
2022-09-15T19:17:39.226Z,59.84
2022-09-15T19:20:07.199Z,60.38
2022-09-15T19:22:33.719Z,60.71
2022-09-15T19:25:00.047Z,60.28
2022-09-15T19:27:26.480Z,60.94
2022-09-15T19:29:52.936Z,60.93
2022-09-15T19:32:20.847Z,60.90
2022-09-15T19:34:47.655Z,61.14
2022-09-15T19:37:18.618Z,61.20
2022-09-15T19:39:45.925Z,61.43
2022-09-15T19:42:13.380Z,61.55
2022-09-15T19:44:41.449Z,61.38
2022-09-15T19:47:08.434Z,61.92
2022-09-15T19:49:34.929Z,61.80
2022-09-15T19:52:01.385Z,62.07
2022-09-15T19:54:29.638Z,62.24
2022-09-15T19:56:56.615Z,62.27
2022-09-15T19:59:26.271Z,62.31
2022-09-15T20:01:55.184Z,62.45
2022-09-15T20:04:21.694Z,62.22
2022-09-15T20:06:48.044Z,62.54
2022-09-15T20:09:15.203Z,62.39
2022-09-15T20:11:41.555Z,62.69
2022-09-15T20:14:07.942Z,63.11
2022-09-15T20:16:34.609Z,63.05
2022-09-15T20:19:02.966Z,63.37
2022-09-15T20:21:49.150Z,63.59
2022-09-15T20:24:16.663Z,63.78
2022-09-15T20:26:43.168Z,63.71
2022-09-15T20:29:10.666Z,63.72
2022-09-15T20:31:37.083Z,63.85
2022-09-15T20:34:03.488Z,64.28
2022-09-15T20:36:35.424Z,64.15
2022-09-15T20:39:04.519Z,64.35
2022-09-15T20:41:34.568Z,64.33
2022-09-15T20:44:01.941Z,64.57
2022-09-15T20:46:31.346Z,64.78
2022-09-15T20:48:57.699Z,64.71
2022-09-15T20:51:26.098Z,65.06
2022-09-15T20:53:54.906Z,65.10
2022-09-15T20:56:25.242Z,65.07
2022-09-15T20:58:52.980Z,65.12
2022-09-15T21:01:25.679Z,65.41
2022-09-15T21:03:53.332Z,65.66
2022-09-15T21:06:22.926Z,65.53
2022-09-15T21:08:49.986Z,66.02
2022-09-15T21:11:19.328Z,66.07
2022-09-15T21:13:47.079Z,65.74
2022-09-15T21:16:16.484Z,66.14
2022-09-15T21:18:45.297Z,66.60
2022-09-15T21:21:14.879Z,66.77
2022-09-15T21:23:44.295Z,66.52
2022-09-15T21:26:22.196Z,66.73
2022-09-15T21:28:48.705Z,66.84
2022-09-15T21:31:20.261Z,66.74
2022-09-15T21:33:47.579Z,66.84
2022-09-15T21:36:20.730Z,66.72
2022-09-15T21:38:47.340Z,66.64
2022-09-15T21:41:16.563Z,66.73
2022-09-15T21:43:46.414Z,66.79
2022-09-15T21:46:16.218Z,66.97
2022-09-15T21:48:44.209Z,67.21
2022-09-15T21:51:14.351Z,66.92
2022-09-15T21:53:42.244Z,66.97
2022-09-15T21:56:10.126Z,67.02
2022-09-15T21:58:42.635Z,67.25
2022-09-15T22:01:09.923Z,67.48
2022-09-15T22:03:37.434Z,67.48
2022-09-15T22:06:03.983Z,67.74
2022-09-15T22:08:30.389Z,67.62
2022-09-15T22:11:00.558Z,67.61
2022-09-15T22:13:28.054Z,67.76
2022-09-15T22:16:05.401Z,67.31
2022-09-15T22:18:32.125Z,67.85
2022-09-15T22:21:07.768Z,67.63
2022-09-15T22:23:34.733Z,67.13
2022-09-15T22:26:03.640Z,67.23
2022-09-15T22:28:31.275Z,67.05
2022-09-15T22:31:03.532Z,67.22
2022-09-15T22:33:30.283Z,67.02
2022-09-15T22:35:57.196Z,67.20
2022-09-15T22:38:25.000Z,67.19
2022-09-15T22:40:51.531Z,66.99
2022-09-15T22:43:17.973Z,67.06
2022-09-15T22:45:44.387Z,67.54
2022-09-15T22:48:10.818Z,67.06
2022-09-15T22:50:37.250Z,67.25
2022-09-15T22:53:03.692Z,67.35
2022-09-15T22:55:31.699Z,67.66
2022-09-15T22:57:58.170Z,67.73
2022-09-15T23:00:24.828Z,68.25
2022-09-15T23:02:51.840Z,67.94
2022-09-15T23:05:18.243Z,68.17
2022-09-15T23:07:44.599Z,68.28
2022-09-15T23:10:10.943Z,68.70
2022-09-15T23:12:37.320Z,68.83
2022-09-15T23:15:04.911Z,69.47
2022-09-15T23:17:31.477Z,69.16
2022-09-15T23:19:57.901Z,68.98
2022-09-15T23:22:24.261Z,68.85
2022-09-15T23:24:50.633Z,70.06
2022-09-15T23:27:17.163Z,69.95
2022-09-15T23:29:43.517Z,69.23
2022-09-15T23:32:10.016Z,68.90
2022-09-15T23:34:36.344Z,69.05
2022-09-15T23:37:02.904Z,69.31
2022-09-15T23:39:29.617Z,69.56
2022-09-15T23:41:55.995Z,69.31
2022-09-15T23:44:22.358Z,69.64
2022-09-15T23:46:48.884Z,69.63
2022-09-15T23:49:18.603Z,69.26
2022-09-15T23:51:45.316Z,69.56
2022-09-15T23:54:11.650Z,69.39
2022-09-15T23:56:38.308Z,69.76
2022-09-15T23:59:04.703Z,69.76
